sensor_id;sensor_type;location;lat;lon;timestamp;P1;P2;P0
76049;PMS7003;64967;50.234;19.224;2024-02-14T00:02:26;20.67;13.67;11.33
76049;PMS7003;64967;50.234;19.224;2024-02-14T00:04:53;26.67;26.00;19.33
76049;PMS7003;64967;50.234;19.224;2024-02-14T00:07:20;24.00;19.67;11.33
76049;PMS7003;64967;50.234;19.224;2024-02-14T00:09:48;69.33;54.00;33.00
76049;PMS7003;64967;50.234;19.224;2024-02-14T00:12:14;61.67;46.67;30.00
76049;PMS7003;64967;50.234;19.224;2024-02-14T00:14:41;63.00;48.00;32.00
76049;PMS7003;64967;50.234;19.224;2024-02-14T00:17:09;72.50;55.00;36.00
76049;PMS7003;64967;50.234;19.224;2024-02-14T00:19:36;64.33;49.00;30.33
76049;PMS7003;64967;50.234;19.224;2024-02-14T00:22:03;56.00;43.00;28.00
76049;PMS7003;64967;50.234;19.224;2024-02-14T00:24:30;50.00;44.67;27.00
76049;PMS7003;64967;50.234;19.224;2024-02-14T00:26:58;35.33;28.33;19.33
76049;PMS7003;64967;50.234;19.224;2024-02-14T00:29:27;39.67;34.00;24.67
76049;PMS7003;64967;50.234;19.224;2024-02-14T00:31:53;32.00;26.67;16.33
76049;PMS7003;64967;50.234;19.224;2024-02-14T00:34:20;34.33;25.33;16.00
76049;PMS7003;64967;50.234;19.224;2024-02-14T00:36:47;34.67;32.67;22.33
76049;PMS7003;64967;50.234;19.224;2024-02-14T00:39:14;44.67;41.00;27.33
76049;PMS7003;64967;50.234;19.224;2024-02-14T00:41:41;39.33;31.33;22.00
76049;PMS7003;64967;50.234;19.224;2024-02-14T00:44:07;29.67;24.67;16.33
76049;PMS7003;64967;50.234;19.224;2024-02-14T00:46:34;26.00;22.00;16.00
76049;PMS7003;64967;50.234;19.224;2024-02-14T00:49:01;24.00;18.67;15.33
76049;PMS7003;64967;50.234;19.224;2024-02-14T00:51:28;19.33;16.00;12.67
76049;PMS7003;64967;50.234;19.224;2024-02-14T00:53:54;12.33;11.00;6.67
76049;PMS7003;64967;50.234;19.224;2024-02-14T00:56:21;15.33;13.00;9.00
76049;PMS7003;64967;50.234;19.224;2024-02-14T00:58:50;15.67;15.00;12.00
76049;PMS7003;64967;50.234;19.224;2024-02-14T01:01:16;12.33;8.67;5.67
76049;PMS7003;64967;50.234;19.224;2024-02-14T01:03:43;8.75;7.50;5.25
76049;PMS7003;64967;50.234;19.224;2024-02-14T01:06:10;10.00;9.00;6.50
76049;PMS7003;64967;50.234;19.224;2024-02-14T01:08:38;20.00;17.00;12.67
76049;PMS7003;64967;50.234;19.224;2024-02-14T01:11:05;26.00;20.00;15.00
76049;PMS7003;64967;50.234;19.224;2024-02-14T01:13:31;28.00;23.33;15.00
76049;PMS7003;64967;50.234;19.224;2024-02-14T01:15:58;26.00;22.00;14.33
76049;PMS7003;64967;50.234;19.224;2024-02-14T01:18:24;15.33;12.00;4.33
76049;PMS7003;64967;50.234;19.224;2024-02-14T01:20:52;23.00;21.33;15.00
76049;PMS7003;64967;50.234;19.224;2024-02-14T01:23:20;15.67;14.33;12.00
76049;PMS7003;64967;50.234;19.224;2024-02-14T01:25:46;19.33;18.67;13.67
76049;PMS7003;64967;50.234;19.224;2024-02-14T01:28:13;26.67;25.33;19.00
76049;PMS7003;64967;50.234;19.224;2024-02-14T01:30:39;25.33;23.67;16.00
76049;PMS7003;64967;50.234;19.224;2024-02-14T01:33:07;47.33;39.33;27.00
76049;PMS7003;64967;50.234;19.224;2024-02-14T01:35:34;43.67;36.00;28.33
76049;PMS7003;64967;50.234;19.224;2024-02-14T01:38:01;45.00;38.00;27.00
76049;PMS7003;64967;50.234;19.224;2024-02-14T01:40:29;55.00;45.00;30.00
76049;PMS7003;64967;50.234;19.224;2024-02-14T01:42:55;53.33;44.67;30.67
76049;PMS7003;64967;50.234;19.224;2024-02-14T01:45:22;56.67;45.33;31.00
76049;PMS7003;64967;50.234;19.224;2024-02-14T01:47:49;54.00;43.00;29.00
76049;PMS7003;64967;50.234;19.224;2024-02-14T01:50:17;47.00;40.67;27.67
76049;PMS7003;64967;50.234;19.224;2024-02-14T01:52:44;67.33;48.33;31.00
76049;PMS7003;64967;50.234;19.224;2024-02-14T01:55:12;58.33;44.00;30.00
76049;PMS7003;64967;50.234;19.224;2024-02-14T01:57:39;49.67;42.67;29.33
76049;PMS7003;64967;50.234;19.224;2024-02-14T02:00:06;61.00;48.67;31.00
76049;PMS7003;64967;50.234;19.224;2024-02-14T02:02:36;70.67;53.33;33.00
76049;PMS7003;64967;50.234;19.224;2024-02-14T02:05:03;58.00;45.33;30.00
76049;PMS7003;64967;50.234;19.224;2024-02-14T02:07:31;55.33;43.00;29.33
76049;PMS7003;64967;50.234;19.224;2024-02-14T02:09:58;45.33;33.67;23.67
76049;PMS7003;64967;50.234;19.224;2024-02-14T02:12:26;40.33;32.67;19.00
76049;PMS7003;64967;50.234;19.224;2024-02-14T02:14:53;35.67;29.33;19.67
76049;PMS7003;64967;50.234;19.224;2024-02-14T02:17:20;22.00;20.00;18.00
76049;PMS7003;64967;50.234;19.224;2024-02-14T02:19:47;30.33;27.00;17.67
76049;PMS7003;64967;50.234;19.224;2024-02-14T02:22:14;26.00;21.00;16.00
76049;PMS7003;64967;50.234;19.224;2024-02-14T02:24:41;22.00;18.67;13.33
76049;PMS7003;64967;50.234;19.224;2024-02-14T02:27:07;37.67;31.67;25.00
76049;PMS7003;64967;50.234;19.224;2024-02-14T02:29:34;53.67;44.00;30.00
76049;PMS7003;64967;50.234;19.224;2024-02-14T02:32:01;55.00;47.00;31.33
76049;PMS7003;64967;50.234;19.224;2024-02-14T02:34:27;59.33;41.00;26.00
76049;PMS7003;64967;50.234;19.224;2024-02-14T02:36:54;42.33;33.33;24.67
76049;PMS7003;64967;50.234;19.224;2024-02-14T02:39:21;76.33;56.67;38.67
76049;PMS7003;64967;50.234;19.224;2024-02-14T02:41:47;49.00;43.33;27.67
76049;PMS7003;64967;50.234;19.224;2024-02-14T02:44:16;70.00;50.00;33.00
76049;PMS7003;64967;50.234;19.224;2024-02-14T02:46:42;54.67;43.67;29.67
76049;PMS7003;64967;50.234;19.224;2024-02-14T02:49:12;38.33;33.67;23.00
76049;PMS7003;64967;50.234;19.224;2024-02-14T02:51:40;33.33;32.33;23.00
76049;PMS7003;64967;50.234;19.224;2024-02-14T02:54:07;34.67;29.67;20.00
76049;PMS7003;64967;50.234;19.224;2024-02-14T02:56:35;27.67;25.33;19.33
76049;PMS7003;64967;50.234;19.224;2024-02-14T02:59:01;19.67;19.00;16.67
76049;PMS7003;64967;50.234;19.224;2024-02-14T03:01:35;27.00;19.00;12.00
76049;PMS7003;64967;50.234;19.224;2024-02-14T03:04:02;21.33;15.00;11.00
76049;PMS7003;64967;50.234;19.224;2024-02-14T03:06:29;30.67;24.33;16.67
76049;PMS7003;64967;50.234;19.224;2024-02-14T03:08:57;22.33;18.33;12.67
76049;PMS7003;64967;50.234;19.224;2024-02-14T03:11:24;24.00;20.67;14.00
76049;PMS7003;64967;50.234;19.224;2024-02-14T03:13:54;20.00;18.67;15.00
76049;PMS7003;64967;50.234;19.224;2024-02-14T03:16:21;14.33;12.67;9.33
76049;PMS7003;64967;50.234;19.224;2024-02-14T03:18:47;20.67;18.00;12.00
76049;PMS7003;64967;50.234;19.224;2024-02-14T03:21:14;22.33;15.00;12.00
76049;PMS7003;64967;50.234;19.224;2024-02-14T03:23:41;22.33;17.00;12.00
76049;PMS7003;64967;50.234;19.224;2024-02-14T03:26:07;24.67;21.67;16.00
76049;PMS7003;64967;50.234;19.224;2024-02-14T03:28:35;9.00;8.00;5.00
76049;PMS7003;64967;50.234;19.224;2024-02-14T03:31:02;15.67;13.00;9.00
76049;PMS7003;64967;50.234;19.224;2024-02-14T03:33:28;11.50;10.00;8.00
76049;PMS7003;64967;50.234;19.224;2024-02-14T03:35:56;13.33;9.00;7.33
76049;PMS7003;64967;50.234;19.224;2024-02-14T03:38:26;18.00;13.50;10.00
76049;PMS7003;64967;50.234;19.224;2024-02-14T03:40:54;12.33;10.33;6.00
76049;PMS7003;64967;50.234;19.224;2024-02-14T03:43:20;25.00;23.33;17.67
76049;PMS7003;64967;50.234;19.224;2024-02-14T03:45:49;16.00;15.00;11.00
76049;PMS7003;64967;50.234;19.224;2024-02-14T03:48:18;40.33;31.33;23.00
76049;PMS7003;64967;50.234;19.224;2024-02-14T03:50:44;26.00;21.67;17.00
76049;PMS7003;64967;50.234;19.224;2024-02-14T03:53:11;30.00;23.33;16.33
76049;PMS7003;64967;50.234;19.224;2024-02-14T03:55:38;23.00;19.00;11.33
76049;PMS7003;64967;50.234;19.224;2024-02-14T03:58:04;21.33;16.67;12.00
76049;PMS7003;64967;50.234;19.224;2024-02-14T04:00:32;42.00;33.33;20.00
76049;PMS7003;64967;50.234;19.224;2024-02-14T04:03:00;35.67;28.67;20.00
76049;PMS7003;64967;50.234;19.224;2024-02-14T04:05:26;38.00;31.00;23.67
76049;PMS7003;64967;50.234;19.224;2024-02-14T04:07:56;28.33;19.67;15.00
76049;PMS7003;64967;50.234;19.224;2024-02-14T04:10:23;29.67;24.00;15.67
76049;PMS7003;64967;50.234;19.224;2024-02-14T04:12:50;27.00;25.67;18.33
76049;PMS7003;64967;50.234;19.224;2024-02-14T04:15:17;57.33;41.00;27.00
76049;PMS7003;64967;50.234;19.224;2024-02-14T04:17:43;73.00;58.00;38.00
76049;PMS7003;64967;50.234;19.224;2024-02-14T04:20:10;76.67;57.33;38.00
76049;PMS7003;64967;50.234;19.224;2024-02-14T04:22:37;61.00;47.33;30.67
76049;PMS7003;64967;50.234;19.224;2024-02-14T04:25:04;53.33;41.67;28.00
76049;PMS7003;64967;50.234;19.224;2024-02-14T04:27:30;46.00;38.00;27.00
76049;PMS7003;64967;50.234;19.224;2024-02-14T04:30:01;33.33;30.33;20.00
76049;PMS7003;64967;50.234;19.224;2024-02-14T04:32:28;31.00;27.33;18.33
76049;PMS7003;64967;50.234;19.224;2024-02-14T04:34:55;26.00;22.00;16.33
76049;PMS7003;64967;50.234;19.224;2024-02-14T04:37:23;35.00;30.33;22.33
76049;PMS7003;64967;50.234;19.224;2024-02-14T04:39:49;31.33;26.00;16.67
76049;PMS7003;64967;50.234;19.224;2024-02-14T04:42:16;36.33;27.33;19.00
76049;PMS7003;64967;50.234;19.224;2024-02-14T04:44:43;47.67;33.00;20.00
76049;PMS7003;64967;50.234;19.224;2024-02-14T04:47:10;58.67;46.33;31.00
76049;PMS7003;64967;50.234;19.224;2024-02-14T04:49:36;46.00;40.33;29.00
76049;PMS7003;64967;50.234;19.224;2024-02-14T04:52:04;41.67;37.00;23.00
76049;PMS7003;64967;50.234;19.224;2024-02-14T04:54:30;62.33;44.33;30.00
76049;PMS7003;64967;50.234;19.224;2024-02-14T04:56:58;46.67;39.67;26.00
76049;PMS7003;64967;50.234;19.224;2024-02-14T04:59:28;55.33;44.00;30.67
76049;PMS7003;64967;50.234;19.224;2024-02-14T05:01:55;36.67;24.67;18.33
76049;PMS7003;64967;50.234;19.224;2024-02-14T05:04:23;33.00;30.33;19.67
76049;PMS7003;64967;50.234;19.224;2024-02-14T05:06:49;76.67;57.33;37.00
76049;PMS7003;64967;50.234;19.224;2024-02-14T05:09:20;82.00;55.33;38.00
76049;PMS7003;64967;50.234;19.224;2024-02-14T05:11:46;89.75;62.00;40.75
76049;PMS7003;64967;50.234;19.224;2024-02-14T05:14:13;83.25;64.00;40.25
76049;PMS7003;64967;50.234;19.224;2024-02-14T05:16:40;77.00;57.67;36.67
76049;PMS7003;64967;50.234;19.224;2024-02-14T05:19:06;63.67;48.67;33.00
76049;PMS7003;64967;50.234;19.224;2024-02-14T05:21:33;51.00;44.33;29.67
76049;PMS7003;64967;50.234;19.224;2024-02-14T05:24:01;47.00;42.00;29.00
76049;PMS7003;64967;50.234;19.224;2024-02-14T05:26:27;55.00;44.00;30.00
76049;PMS7003;64967;50.234;19.224;2024-02-14T05:28:54;63.67;50.33;36.33
76049;PMS7003;64967;50.234;19.224;2024-02-14T05:31:21;66.33;51.00;34.33
76049;PMS7003;64967;50.234;19.224;2024-02-14T05:33:48;71.33;52.67;34.00
76049;PMS7003;64967;50.234;19.224;2024-02-14T05:36:15;54.33;46.00;33.00
76049;PMS7003;64967;50.234;19.224;2024-02-14T05:38:42;55.00;44.00;29.67
76049;PMS7003;64967;50.234;19.224;2024-02-14T05:41:08;60.67;45.33;30.00
76049;PMS7003;64967;50.234;19.224;2024-02-14T05:43:35;46.67;41.00;29.33
76049;PMS7003;64967;50.234;19.224;2024-02-14T05:46:02;31.00;28.67;18.33
76049;PMS7003;64967;50.234;19.224;2024-02-14T05:48:28;32.33;25.33;18.33
76049;PMS7003;64967;50.234;19.224;2024-02-14T05:50:55;35.67;28.00;19.00
76049;PMS7003;64967;50.234;19.224;2024-02-14T05:53:22;28.33;22.67;17.33
76049;PMS7003;64967;50.234;19.224;2024-02-14T05:55:49;23.67;19.00;16.33
76049;PMS7003;64967;50.234;19.224;2024-02-14T05:58:15;49.33;39.00;27.67
76049;PMS7003;64967;50.234;19.224;2024-02-14T06:00:42;59.33;44.33;30.00
76049;PMS7003;64967;50.234;19.224;2024-02-14T06:03:09;42.33;36.33;26.00
76049;PMS7003;64967;50.234;19.224;2024-02-14T06:05:35;49.67;41.33;27.67
76049;PMS7003;64967;50.234;19.224;2024-02-14T06:08:02;59.00;47.67;31.33
76049;PMS7003;64967;50.234;19.224;2024-02-14T06:10:29;53.00;41.33;28.00
76049;PMS7003;64967;50.234;19.224;2024-02-14T06:12:56;52.33;42.00;28.33
76049;PMS7003;64967;50.234;19.224;2024-02-14T06:15:23;42.00;37.67;27.67
76049;PMS7003;64967;50.234;19.224;2024-02-14T06:17:49;41.00;34.33;26.33
76049;PMS7003;64967;50.234;19.224;2024-02-14T06:20:17;31.67;27.67;16.67
76049;PMS7003;64967;50.234;19.224;2024-02-14T06:22:43;30.00;26.00;21.67
76049;PMS7003;64967;50.234;19.224;2024-02-14T06:25:22;40.33;27.00;20.33
76049;PMS7003;64967;50.234;19.224;2024-02-14T06:27:49;31.00;24.67;18.33
76049;PMS7003;64967;50.234;19.224;2024-02-14T06:30:15;31.00;28.00;21.00
76049;PMS7003;64967;50.234;19.224;2024-02-14T06:32:44;25.00;23.00;18.00
76049;PMS7003;64967;50.234;19.224;2024-02-14T06:35:11;23.33;17.33;13.33
76049;PMS7003;64967;50.234;19.224;2024-02-14T06:37:38;18.00;15.00;9.00
76049;PMS7003;64967;50.234;19.224;2024-02-14T06:40:18;7.00;6.33;1.00
76049;PMS7003;64967;50.234;19.224;2024-02-14T06:42:44;19.33;16.67;12.00
76049;PMS7003;64967;50.234;19.224;2024-02-14T06:45:11;20.67;15.00;11.00
76049;PMS7003;64967;50.234;19.224;2024-02-14T06:47:38;16.67;15.00;11.33
76049;PMS7003;64967;50.234;19.224;2024-02-14T06:50:05;28.67;24.00;19.00
76049;PMS7003;64967;50.234;19.224;2024-02-14T06:52:34;19.00;15.00;11.00
76049;PMS7003;64967;50.234;19.224;2024-02-14T06:55:00;28.00;18.00;14.00
76049;PMS7003;64967;50.234;19.224;2024-02-14T06:57:30;12.33;11.67;9.67
76049;PMS7003;64967;50.234;19.224;2024-02-14T06:59:56;14.00;12.67;8.67
76049;PMS7003;64967;50.234;19.224;2024-02-14T07:02:23;12.00;9.00;6.00
76049;PMS7003;64967;50.234;19.224;2024-02-14T07:04:54;12.00;8.00;7.33
76049;PMS7003;64967;50.234;19.224;2024-02-14T07:07:21;12.33;10.67;9.00
76049;PMS7003;64967;50.234;19.224;2024-02-14T07:09:47;19.00;16.00;13.33
76049;PMS7003;64967;50.234;19.224;2024-02-14T07:12:14;12.67;9.00;8.00
76049;PMS7003;64967;50.234;19.224;2024-02-14T07:14:41;11.00;8.75;6.00
76049;PMS7003;64967;50.234;19.224;2024-02-14T07:17:07;13.00;11.25;8.25
76049;PMS7003;64967;50.234;19.224;2024-02-14T07:19:34;12.75;9.50;7.00
76049;PMS7003;64967;50.234;19.224;2024-02-14T07:22:01;16.67;13.00;9.00
76049;PMS7003;64967;50.234;19.224;2024-02-14T07:24:28;18.50;13.75;10.00
76049;PMS7003;64967;50.234;19.224;2024-02-14T07:26:54;20.67;20.00;14.00
76049;PMS7003;64967;50.234;19.224;2024-02-14T07:29:21;32.67;29.33;19.00
76049;PMS7003;64967;50.234;19.224;2024-02-14T07:31:47;20.67;18.33;13.00
76049;PMS7003;64967;50.234;19.224;2024-02-14T07:34:14;31.00;20.67;15.67
76049;PMS7003;64967;50.234;19.224;2024-02-14T07:36:41;34.33;28.33;20.00
76049;PMS7003;64967;50.234;19.224;2024-02-14T07:39:12;34.33;29.33;18.33
76049;PMS7003;64967;50.234;19.224;2024-02-14T07:41:39;40.00;37.67;26.33
76049;PMS7003;64967;50.234;19.224;2024-02-14T07:44:06;55.33;40.67;27.33
76049;PMS7003;64967;50.234;19.224;2024-02-14T07:46:32;42.00;36.00;26.33
76049;PMS7003;64967;50.234;19.224;2024-02-14T07:48:59;52.33;37.67;25.00
76049;PMS7003;64967;50.234;19.224;2024-02-14T07:51:26;46.67;32.00;26.00
76049;PMS7003;64967;50.234;19.224;2024-02-14T07:53:55;49.00;38.67;25.67
76049;PMS7003;64967;50.234;19.224;2024-02-14T07:56:22;54.33;42.00;29.00
76049;PMS7003;64967;50.234;19.224;2024-02-14T07:58:48;48.67;43.67;28.00
76049;PMS7003;64967;50.234;19.224;2024-02-14T08:01:16;52.00;39.67;26.33
76049;PMS7003;64967;50.234;19.224;2024-02-14T08:03:43;50.67;39.33;26.00
76049;PMS7003;64967;50.234;19.224;2024-02-14T08:06:09;52.33;42.00;26.67
76049;PMS7003;64967;50.234;19.224;2024-02-14T08:08:36;47.33;37.33;24.67
76049;PMS7003;64967;50.234;19.224;2024-02-14T08:11:03;41.00;37.00;24.33
76049;PMS7003;64967;50.234;19.224;2024-02-14T08:13:30;45.67;34.00;26.00
76049;PMS7003;64967;50.234;19.224;2024-02-14T08:15:57;53.00;40.00;26.00
76049;PMS7003;64967;50.234;19.224;2024-02-14T08:18:24;48.00;42.00;27.67
76049;PMS7003;64967;50.234;19.224;2024-02-14T08:20:53;59.33;45.33;26.00
76049;PMS7003;64967;50.234;19.224;2024-02-14T08:23:20;53.67;42.33;27.33
76049;PMS7003;64967;50.234;19.224;2024-02-14T08:25:47;64.00;44.33;28.33
76049;PMS7003;64967;50.234;19.224;2024-02-14T08:28:15;62.33;45.33;29.00
76049;PMS7003;64967;50.234;19.224;2024-02-14T08:30:44;32.33;27.67;23.67
76049;PMS7003;64967;50.234;19.224;2024-02-14T08:33:11;58.67;45.33;31.00
76049;PMS7003;64967;50.234;19.224;2024-02-14T08:35:38;56.33;42.00;29.00
76049;PMS7003;64967;50.234;19.224;2024-02-14T08:38:09;62.00;47.00;29.00
76049;PMS7003;64967;50.234;19.224;2024-02-14T08:40:36;50.33;36.33;23.33
76049;PMS7003;64967;50.234;19.224;2024-02-14T08:43:03;58.33;45.67;29.33
76049;PMS7003;64967;50.234;19.224;2024-02-14T08:45:34;51.33;43.00;27.67
76049;PMS7003;64967;50.234;19.224;2024-02-14T08:48:00;56.33;44.33;29.00
76049;PMS7003;64967;50.234;19.224;2024-02-14T08:50:28;63.67;47.00;31.33
76049;PMS7003;64967;50.234;19.224;2024-02-14T08:52:56;39.67;38.00;27.00
76049;PMS7003;64967;50.234;19.224;2024-02-14T08:55:23;45.00;37.25;25.00
76049;PMS7003;64967;50.234;19.224;2024-02-14T08:57:49;57.00;47.00;31.67
76049;PMS7003;64967;50.234;19.224;2024-02-14T09:00:16;53.00;44.00;28.67
76049;PMS7003;64967;50.234;19.224;2024-02-14T09:02:46;64.33;46.00;29.00
76049;PMS7003;64967;50.234;19.224;2024-02-14T09:05:13;57.00;43.67;28.67
76049;PMS7003;64967;50.234;19.224;2024-02-14T09:07:40;54.25;41.00;27.00
76049;PMS7003;64967;50.234;19.224;2024-02-14T09:10:08;47.25;35.50;23.25
76049;PMS7003;64967;50.234;19.224;2024-02-14T09:12:36;55.50;40.25;25.50
76049;PMS7003;64967;50.234;19.224;2024-02-14T09:15:04;48.00;38.75;27.25
76049;PMS7003;64967;50.234;19.224;2024-02-14T09:17:31;44.75;38.25;26.00
76049;PMS7003;64967;50.234;19.224;2024-02-14T09:19:58;46.50;38.75;27.00
76049;PMS7003;64967;50.234;19.224;2024-02-14T09:22:25;45.50;37.25;24.25
76049;PMS7003;64967;50.234;19.224;2024-02-14T09:24:52;49.00;37.75;25.00
76049;PMS7003;64967;50.234;19.224;2024-02-14T09:27:19;38.75;35.00;23.50
76049;PMS7003;64967;50.234;19.224;2024-02-14T09:29:46;44.00;37.00;26.75
76049;PMS7003;64967;50.234;19.224;2024-02-14T09:32:13;40.25;35.50;23.50
76049;PMS7003;64967;50.234;19.224;2024-02-14T09:34:40;39.00;32.75;23.00
76049;PMS7003;64967;50.234;19.224;2024-02-14T09:37:06;36.00;27.25;19.25
76049;PMS7003;64967;50.234;19.224;2024-02-14T09:39:33;26.00;23.50;17.00
76049;PMS7003;64967;50.234;19.224;2024-02-14T09:42:04;53.75;41.00;28.25
76049;PMS7003;64967;50.234;19.224;2024-02-14T09:44:35;42.75;36.25;24.25
76049;PMS7003;64967;50.234;19.224;2024-02-14T09:47:05;39.25;33.25;21.25
76049;PMS7003;64967;50.234;19.224;2024-02-14T09:49:32;27.00;25.00;18.00
76049;PMS7003;64967;50.234;19.224;2024-02-14T09:51:59;25.00;18.50;13.50
76049;PMS7003;64967;50.234;19.224;2024-02-14T09:54:29;22.25;19.50;13.50
76049;PMS7003;64967;50.234;19.224;2024-02-14T09:56:58;20.75;18.00;13.00
76049;PMS7003;64967;50.234;19.224;2024-02-14T09:59:25;20.50;19.25;13.00
76049;PMS7003;64967;50.234;19.224;2024-02-14T10:01:52;29.50;22.00;15.00
76049;PMS7003;64967;50.234;19.224;2024-02-14T10:04:19;12.75;12.50;9.50
76049;PMS7003;64967;50.234;19.224;2024-02-14T10:06:50;20.50;17.50;12.50
76049;PMS7003;64967;50.234;19.224;2024-02-14T10:09:18;14.00;13.75;10.00
76049;PMS7003;64967;50.234;19.224;2024-02-14T10:11:48;8.75;8.75;7.00
76049;PMS7003;64967;50.234;19.224;2024-02-14T10:14:15;11.00;8.50;6.75
76049;PMS7003;64967;50.234;19.224;2024-02-14T10:16:42;11.00;9.50;8.75
76049;PMS7003;64967;50.234;19.224;2024-02-14T10:19:15;7.75;7.00;6.00
76049;PMS7003;64967;50.234;19.224;2024-02-14T10:21:43;9.50;8.00;5.50
76049;PMS7003;64967;50.234;19.224;2024-02-14T10:24:21;15.25;7.25;5.50
76049;PMS7003;64967;50.234;19.224;2024-02-14T10:26:47;7.00;6.50;6.00
76049;PMS7003;64967;50.234;19.224;2024-02-14T10:29:15;8.00;8.00;6.00
76049;PMS7003;64967;50.234;19.224;2024-02-14T10:31:41;11.00;8.00;6.00
76049;PMS7003;64967;50.234;19.224;2024-02-14T10:34:08;12.25;9.00;7.00
76049;PMS7003;64967;50.234;19.224;2024-02-14T10:36:36;13.00;10.00;6.00
76049;PMS7003;64967;50.234;19.224;2024-02-14T10:39:06;9.50;9.25;6.50
76049;PMS7003;64967;50.234;19.224;2024-02-14T10:41:36;9.50;9.00;7.50
76049;PMS7003;64967;50.234;19.224;2024-02-14T10:44:03;8.25;7.50;6.00
76049;PMS7003;64967;50.234;19.224;2024-02-14T10:46:35;9.50;9.50;7.00
76049;PMS7003;64967;50.234;19.224;2024-02-14T10:49:04;9.25;6.00;5.00
76049;PMS7003;64967;50.234;19.224;2024-02-14T10:51:32;12.75;9.75;7.00
76049;PMS7003;64967;50.234;19.224;2024-02-14T10:54:08;6.25;3.50;3.00
76049;PMS7003;64967;50.234;19.224;2024-02-14T10:56:45;9.75;8.00;6.75
76049;PMS7003;64967;50.234;19.224;2024-02-14T10:59:19;7.25;5.00;5.00
76049;PMS7003;64967;50.234;19.224;2024-02-14T11:01:47;4.00;3.50;2.50
76049;PMS7003;64967;50.234;19.224;2024-02-14T11:04:15;7.25;6.25;6.00
76049;PMS7003;64967;50.234;19.224;2024-02-14T11:06:51;7.50;7.00;6.00
76049;PMS7003;64967;50.234;19.224;2024-02-14T11:09:35;7.00;7.00;6.00
76049;PMS7003;64967;50.234;19.224;2024-02-14T11:12:08;4.25;4.00;3.00
76049;PMS7003;64967;50.234;19.224;2024-02-14T11:14:36;9.00;7.25;5.00
76049;PMS7003;64967;50.234;19.224;2024-02-14T11:17:09;6.00;6.00;4.00
76049;PMS7003;64967;50.234;19.224;2024-02-14T11:19:36;8.00;8.00;7.00
76049;PMS7003;64967;50.234;19.224;2024-02-14T11:22:13;8.00;7.75;5.75
76049;PMS7003;64967;50.234;19.224;2024-02-14T11:24:47;8.75;6.00;5.00
76049;PMS7003;64967;50.234;19.224;2024-02-14T11:27:17;8.00;8.00;6.00
76049;PMS7003;64967;50.234;19.224;2024-02-14T11:29:59;8.75;7.00;5.00
76049;PMS7003;64967;50.234;19.224;2024-02-14T11:32:27;9.00;8.00;6.00
76049;PMS7003;64967;50.234;19.224;2024-02-14T11:34:55;9.50;7.00;5.75
76049;PMS7003;64967;50.234;19.224;2024-02-14T11:37:29;9.00;9.00;7.00
76049;PMS7003;64967;50.234;19.224;2024-02-14T11:39:58;10.50;9.25;7.25
76049;PMS7003;64967;50.234;19.224;2024-02-14T11:42:24;8.25;7.50;6.00
76049;PMS7003;64967;50.234;19.224;2024-02-14T11:44:52;10.00;9.00;8.00
76049;PMS7003;64967;50.234;19.224;2024-02-14T11:47:22;14.00;11.75;8.00
76049;PMS7003;64967;50.234;19.224;2024-02-14T11:49:49;12.00;11.50;7.75
76049;PMS7003;64967;50.234;19.224;2024-02-14T11:52:17;12.50;10.00;8.00
76049;PMS7003;64967;50.234;19.224;2024-02-14T11:54:47;7.00;6.50;4.50
76049;PMS7003;64967;50.234;19.224;2024-02-14T11:57:17;11.00;10.00;8.00
76049;PMS7003;64967;50.234;19.224;2024-02-14T11:59:48;11.25;9.00;8.00
76049;PMS7003;64967;50.234;19.224;2024-02-14T12:02:17;9.25;8.00;6.25
76049;PMS7003;64967;50.234;19.224;2024-02-14T12:04:46;16.25;14.75;10.75
76049;PMS7003;64967;50.234;19.224;2024-02-14T12:07:17;14.75;13.00;9.25
76049;PMS7003;64967;50.234;19.224;2024-02-14T12:09:45;14.00;14.00;10.00
76049;PMS7003;64967;50.234;19.224;2024-02-14T12:12:12;17.75;12.50;8.75
76049;PMS7003;64967;50.234;19.224;2024-02-14T12:14:39;18.25;14.00;10.00
76049;PMS7003;64967;50.234;19.224;2024-02-14T12:17:05;15.25;14.00;10.25
76049;PMS7003;64967;50.234;19.224;2024-02-14T12:19:35;16.50;12.75;9.00
76049;PMS7003;64967;50.234;19.224;2024-02-14T12:22:08;14.75;12.75;9.00
76049;PMS7003;64967;50.234;19.224;2024-02-14T12:24:38;15.50;12.50;9.75
76049;PMS7003;64967;50.234;19.224;2024-02-14T12:27:04;10.25;8.75;7.75
76049;PMS7003;64967;50.234;19.224;2024-02-14T12:29:31;8.25;8.25;7.50
76049;PMS7003;64967;50.234;19.224;2024-02-14T12:32:05;9.50;8.00;7.00
76049;PMS7003;64967;50.234;19.224;2024-02-14T12:34:32;7.00;6.50;4.50
76049;PMS7003;64967;50.234;19.224;2024-02-14T12:37:00;11.75;11.75;10.00
76049;PMS7003;64967;50.234;19.224;2024-02-14T12:39:26;9.50;8.50;7.00
76049;PMS7003;64967;50.234;19.224;2024-02-14T12:41:53;8.00;7.50;7.00
76049;PMS7003;64967;50.234;19.224;2024-02-14T12:44:21;9.00;8.50;7.00
76049;PMS7003;64967;50.234;19.224;2024-02-14T12:46:47;8.25;6.75;5.75
76049;PMS7003;64967;50.234;19.224;2024-02-14T12:49:14;9.50;8.25;7.00
76049;PMS7003;64967;50.234;19.224;2024-02-14T12:51:41;7.00;6.75;5.50
76049;PMS7003;64967;50.234;19.224;2024-02-14T12:54:08;9.50;7.75;4.25
76049;PMS7003;64967;50.234;19.224;2024-02-14T12:56:38;11.00;9.50;6.50
76049;PMS7003;64967;50.234;19.224;2024-02-14T12:59:05;11.25;8.25;7.00
76049;PMS7003;64967;50.234;19.224;2024-02-14T13:01:32;9.25;8.50;7.75
76049;PMS7003;64967;50.234;19.224;2024-02-14T13:03:59;8.00;8.00;5.50
76049;PMS7003;64967;50.234;19.224;2024-02-14T13:06:28;7.00;6.25;5.00
76049;PMS7003;64967;50.234;19.224;2024-02-14T13:08:55;10.00;9.00;6.25
76049;PMS7003;64967;50.234;19.224;2024-02-14T13:11:22;10.00;8.75;6.50
76049;PMS7003;64967;50.234;19.224;2024-02-14T13:13:48;13.75;10.75;8.75
76049;PMS7003;64967;50.234;19.224;2024-02-14T13:16:15;15.25;11.25;8.00
76049;PMS7003;64967;50.234;19.224;2024-02-14T13:18:42;17.25;13.75;8.50
76049;PMS7003;64967;50.234;19.224;2024-02-14T13:21:09;11.75;11.00;9.25
76049;PMS7003;64967;50.234;19.224;2024-02-14T13:23:36;10.75;9.50;8.00
76049;PMS7003;64967;50.234;19.224;2024-02-14T13:26:03;13.00;8.50;7.00
76049;PMS7003;64967;50.234;19.224;2024-02-14T13:28:30;7.25;7.00;5.50
76049;PMS7003;64967;50.234;19.224;2024-02-14T13:30:56;8.50;8.50;6.00
76049;PMS7003;64967;50.234;19.224;2024-02-14T13:33:23;10.50;8.00;5.50
76049;PMS7003;64967;50.234;19.224;2024-02-14T13:35:50;7.00;7.00;5.25
76049;PMS7003;64967;50.234;19.224;2024-02-14T13:38:17;8.50;8.25;7.25
76049;PMS7003;64967;50.234;19.224;2024-02-14T13:40:44;0.00;0.00;0.00
76049;PMS7003;64967;50.234;19.224;2024-02-14T13:43:11;9.75;8.00;4.75
76049;PMS7003;64967;50.234;19.224;2024-02-14T13:45:42;8.00;8.00;5.75